Wolfe, West Virginia
Current Conditions -  °F | °C
As of 10:52 AM on Sunday 21 Dec 2014 (Local Time) from KBLF Reporting Station
Clear Clear  
Wind Chill: 39°   Ceiling: Unl
Heat Index: 39°   Visibility: 10mi
Dew Point: 27°   Wind: 3mph
Humidity: 62%   Direction: 170°S
Pressure: 30.22"   Gusts: NA
Location:  37.31°N, 81.33°W
Report Text: KBLF 211552Z AUTO 17003KT 10SM CLR 04/M03 A3022 RMK AO2 SLP245 T00391028
Loading
Personal Weather Stations






























Interactive Weather Map New forecast layout! Learn more

10-Day Weather Forecast

Advertisements
Track Severe Weather on mobile